createdAt,value
2019-02-25T00:00:25.414Z,99.99
2019-02-25T00:01:25.394Z,99.99
2019-02-25T00:02:25.371Z,99.99
2019-02-25T00:03:25.334Z,99.66
2019-02-25T00:04:25.318Z,99.19
2019-02-25T00:05:25.286Z,98.90
2019-02-25T00:06:25.267Z,97.96
2019-02-25T00:07:25.236Z,96.73
2019-02-25T00:08:25.219Z,96.54
2019-02-25T00:09:25.183Z,96.64
2019-02-25T00:10:25.199Z,96.45
2019-02-25T00:11:25.133Z,96.35
2019-02-25T00:12:25.113Z,96.16
2019-02-25T00:13:25.082Z,96.73
2019-02-25T00:14:25.064Z,97.20
2019-02-25T00:15:25.040Z,97.01
2019-02-25T00:16:25.011Z,97.86
2019-02-25T00:17:24.979Z,98.43
2019-02-25T00:18:24.956Z,99.04
2019-02-25T00:19:24.927Z,99.33
2019-02-25T00:20:24.906Z,99.89
2019-02-25T00:21:24.882Z,99.99
2019-02-25T00:22:24.860Z,99.99
2019-02-25T00:23:24.828Z,99.99
2019-02-25T00:24:24.803Z,99.99
2019-02-25T00:25:24.783Z,99.99
2019-02-25T00:26:24.751Z,99.99
2019-02-25T00:27:24.724Z,99.99
2019-02-25T00:28:24.704Z,99.99
2019-02-25T00:29:24.675Z,99.99
2019-02-25T00:30:24.650Z,99.99
2019-02-25T00:31:24.624Z,99.99
2019-02-25T00:32:24.599Z,99.99
2019-02-25T00:33:24.573Z,99.99
2019-02-25T00:34:24.547Z,99.99
2019-02-25T00:35:24.521Z,99.99
2019-02-25T00:36:24.495Z,99.99
2019-02-25T00:37:24.473Z,99.99
2019-02-25T00:38:24.447Z,99.99
2019-02-25T00:39:24.420Z,99.99
2019-02-25T00:40:24.396Z,99.99
2019-02-25T00:41:24.374Z,99.99
2019-02-25T00:42:24.348Z,99.99
2019-02-25T00:43:24.324Z,99.99
2019-02-25T00:44:24.292Z,99.99
2019-02-25T00:45:24.275Z,99.99
2019-02-25T00:46:24.247Z,99.99
2019-02-25T00:47:24.222Z,99.99
2019-02-25T00:48:24.196Z,99.99
2019-02-25T00:49:24.168Z,99.99
2019-02-25T00:50:24.136Z,99.99
2019-02-25T00:51:24.113Z,99.99
2019-02-25T00:52:24.094Z,99.99
2019-02-25T00:53:24.063Z,99.99
2019-02-25T00:54:24.040Z,99.99
2019-02-25T00:55:24.011Z,99.99
2019-02-25T00:56:23.985Z,99.99
2019-02-25T00:57:23.960Z,99.99
2019-02-25T00:58:23.933Z,99.99
2019-02-25T00:59:23.914Z,99.99
2019-02-25T01:00:23.886Z,99.99
2019-02-25T01:01:23.866Z,99.99
2019-02-25T01:02:23.838Z,99.99
2019-02-25T01:03:23.815Z,99.99
2019-02-25T01:04:23.783Z,99.99
2019-02-25T01:05:23.757Z,99.99
2019-02-25T01:06:23.742Z,99.99
2019-02-25T01:07:23.707Z,99.99
2019-02-25T01:08:23.683Z,99.99
2019-02-25T01:09:23.661Z,99.99
2019-02-25T01:10:23.635Z,99.99
2019-02-25T01:11:23.604Z,99.99
2019-02-25T01:12:23.574Z,99.99
2019-02-25T01:13:23.555Z,99.99
2019-02-25T01:14:23.526Z,99.99
2019-02-25T01:15:23.499Z,99.99
2019-02-25T01:16:23.474Z,99.99
2019-02-25T01:17:23.448Z,99.99
2019-02-25T01:18:23.429Z,99.99
2019-02-25T01:19:23.403Z,99.99
2019-02-25T01:20:23.377Z,99.99
2019-02-25T01:21:23.349Z,99.99
2019-02-25T01:22:23.330Z,99.99
2019-02-25T01:23:23.295Z,99.99
2019-02-25T01:24:23.269Z,99.99
2019-02-25T01:25:23.244Z,99.99
2019-02-25T01:26:23.225Z,99.99
2019-02-25T01:27:23.195Z,99.99
2019-02-25T01:28:23.171Z,99.99
2019-02-25T01:29:23.148Z,99.99
2019-02-25T01:30:23.115Z,99.99
2019-02-25T01:31:23.097Z,99.99
2019-02-25T01:32:23.065Z,99.89
2019-02-25T01:33:23.042Z,99.99
2019-02-25T01:34:23.016Z,99.61
2019-02-25T01:35:23.001Z,99.61
2019-02-25T01:36:22.966Z,99.42
2019-02-25T01:37:22.937Z,99.04
2019-02-25T01:38:22.912Z,99.14
2019-02-25T01:39:22.886Z,99.23
2019-02-25T01:40:22.867Z,99.33
2019-02-25T01:41:22.839Z,99.99
2019-02-25T01:42:22.838Z,99.89
2019-02-25T01:43:22.784Z,99.99
2019-02-25T01:44:22.758Z,99.99
2019-02-25T01:45:22.737Z,99.99
2019-02-25T01:46:22.708Z,99.99
2019-02-25T01:47:22.691Z,99.99
2019-02-25T01:48:22.657Z,99.99
2019-02-25T01:49:22.638Z,99.99
2019-02-25T01:50:22.612Z,99.99
2019-02-25T01:51:22.580Z,99.99
2019-02-25T01:52:22.552Z,99.99
2019-02-25T01:53:22.528Z,99.99
2019-02-25T01:54:22.502Z,99.99
2019-02-25T01:55:22.476Z,99.42
2019-02-25T01:56:22.452Z,99.99
2019-02-25T01:57:22.432Z,99.99
2019-02-25T01:58:22.402Z,99.99
2019-02-25T01:59:22.374Z,99.99
2019-02-25T02:00:22.348Z,99.99
2019-02-25T02:01:22.325Z,99.99
2019-02-25T02:02:22.310Z,99.99
2019-02-25T02:03:22.274Z,99.99
2019-02-25T02:04:22.256Z,99.99
2019-02-25T02:05:24.350Z,99.99
2019-02-25T02:06:22.199Z,99.99
2019-02-25T02:07:22.174Z,99.99
2019-02-25T02:08:22.145Z,99.99
2019-02-25T02:09:22.125Z,99.99
2019-02-25T02:10:22.096Z,99.99
2019-02-25T02:11:22.067Z,99.99
2019-02-25T02:12:22.041Z,99.99
2019-02-25T02:13:22.016Z,99.99
2019-02-25T02:14:21.994Z,99.99
2019-02-25T02:15:21.978Z,99.99
2019-02-25T02:16:21.944Z,99.99
2019-02-25T02:17:21.919Z,99.99
2019-02-25T02:18:21.896Z,99.99
2019-02-25T02:19:21.864Z,99.99
2019-02-25T02:20:21.839Z,99.99
2019-02-25T02:21:21.816Z,99.99
2019-02-25T02:22:21.794Z,99.99
2019-02-25T02:23:21.762Z,99.99
2019-02-25T02:24:21.733Z,99.99
2019-02-25T02:25:21.712Z,99.99
2019-02-25T02:26:21.686Z,99.99
2019-02-25T02:27:21.663Z,99.99
2019-02-25T02:28:21.632Z,99.99
2019-02-25T02:29:21.611Z,99.99
2019-02-25T02:30:21.650Z,99.99
2019-02-25T02:31:21.555Z,99.99
2019-02-25T02:32:21.534Z,99.99
2019-02-25T02:33:21.515Z,99.99
2019-02-25T02:34:21.486Z,99.99
2019-02-25T02:35:21.456Z,99.99
2019-02-25T02:36:21.426Z,99.99
2019-02-25T02:37:21.400Z,99.99
2019-02-25T02:38:21.377Z,99.99
2019-02-25T02:39:21.348Z,99.99
2019-02-25T02:40:21.326Z,99.99
2019-02-25T02:41:21.300Z,99.99
2019-02-25T02:42:21.277Z,99.99
2019-02-25T02:43:21.262Z,99.99
2019-02-25T02:44:21.230Z,99.99
2019-02-25T02:45:21.207Z,99.99
2019-02-25T02:46:21.175Z,99.99
2019-02-25T02:47:21.149Z,99.99
2019-02-25T02:48:21.122Z,99.99
2019-02-25T02:49:21.095Z,99.99
2019-02-25T02:50:21.075Z,99.99
2019-02-25T02:51:21.042Z,99.99
2019-02-25T02:52:21.021Z,99.99
2019-02-25T02:53:20.992Z,99.99
2019-02-25T02:54:20.968Z,99.99
2019-02-25T02:55:20.945Z,99.99
2019-02-25T02:56:20.918Z,99.99
2019-02-25T02:57:20.889Z,99.99
2019-02-25T02:58:20.870Z,99.99
2019-02-25T02:59:20.839Z,99.99
2019-02-25T03:00:20.819Z,99.99
2019-02-25T03:01:20.790Z,99.99
2019-02-25T03:02:20.764Z,99.99
2019-02-25T03:03:20.736Z,99.99
2019-02-25T03:04:20.713Z,99.99
2019-02-25T03:05:20.684Z,99.99
2019-02-25T03:06:20.673Z,99.99
2019-02-25T03:07:20.646Z,99.99
2019-02-25T03:08:20.614Z,99.99
2019-02-25T03:09:20.585Z,99.99
2019-02-25T03:10:20.561Z,99.99
2019-02-25T03:11:20.535Z,99.99
2019-02-25T03:12:20.503Z,99.99
2019-02-25T03:13:20.480Z,99.99
2019-02-25T03:14:20.452Z,99.99
2019-02-25T03:15:20.428Z,99.99
2019-02-25T03:16:20.407Z,99.99
2019-02-25T03:17:24.412Z,99.99
2019-02-25T03:18:20.353Z,99.99
2019-02-25T03:19:20.325Z,99.99
2019-02-25T03:20:20.307Z,99.99
2019-02-25T03:21:20.281Z,99.99
2019-02-25T03:22:20.254Z,99.99
2019-02-25T03:23:20.219Z,99.99
2019-02-25T03:24:20.193Z,99.99
2019-02-25T03:25:20.174Z,99.99
2019-02-25T03:26:20.148Z,99.99
2019-02-25T03:27:20.119Z,99.99
2019-02-25T03:28:20.099Z,99.99
2019-02-25T03:29:20.067Z,99.99
2019-02-25T03:30:20.063Z,99.99
2019-02-25T03:31:20.019Z,99.99
2019-02-25T03:32:19.991Z,99.99
2019-02-25T03:33:19.982Z,99.99
2019-02-25T03:34:19.938Z,99.99
2019-02-25T03:35:19.920Z,99.99
2019-02-25T03:36:19.889Z,99.99
2019-02-25T03:37:19.870Z,99.99
2019-02-25T03:38:19.835Z,99.99
2019-02-25T03:39:19.814Z,99.99
2019-02-25T03:40:19.784Z,99.99
2019-02-25T03:41:19.758Z,99.99
2019-02-25T03:42:19.738Z,99.99
2019-02-25T03:43:19.707Z,99.99
2019-02-25T03:44:19.684Z,99.99
2019-02-25T03:45:19.658Z,99.99
2019-02-25T03:46:19.629Z,99.99
2019-02-25T03:47:19.604Z,99.99
2019-02-25T03:48:19.577Z,99.99
2019-02-25T03:49:19.549Z,99.99
2019-02-25T03:50:19.532Z,99.99
2019-02-25T03:51:19.516Z,99.99
2019-02-25T03:52:19.473Z,99.99
2019-02-25T03:53:19.453Z,99.99
2019-02-25T03:54:19.443Z,99.99
2019-02-25T03:55:19.395Z,99.99
2019-02-25T03:56:19.373Z,99.99
2019-02-25T03:57:19.347Z,99.99
2019-02-25T03:58:19.334Z,99.99
2019-02-25T03:59:19.298Z,99.99
2019-02-25T04:00:19.308Z,99.99
2019-02-25T04:01:19.249Z,99.99
2019-02-25T04:02:19.220Z,99.99
2019-02-25T04:03:19.192Z,99.99
2019-02-25T04:04:19.164Z,99.99
2019-02-25T04:05:19.137Z,99.99
2019-02-25T04:06:19.120Z,99.99
2019-02-25T04:07:19.096Z,99.99
2019-02-25T04:08:19.058Z,99.99
2019-02-25T04:09:19.034Z,99.99
2019-02-25T04:10:19.007Z,99.99
2019-02-25T04:11:18.982Z,99.99
2019-02-25T04:12:18.960Z,99.99
2019-02-25T04:13:18.930Z,99.99
2019-02-25T04:14:18.904Z,99.99
2019-02-25T04:15:18.886Z,99.99
2019-02-25T04:16:18.862Z,99.99
2019-02-25T04:17:18.828Z,99.99
2019-02-25T04:18:18.804Z,99.99
2019-02-25T04:19:18.779Z,99.99
2019-02-25T04:20:18.748Z,99.99
2019-02-25T04:21:18.728Z,99.99
2019-02-25T04:22:18.700Z,99.99
2019-02-25T04:23:18.671Z,99.99
2019-02-25T04:24:18.654Z,99.99
2019-02-25T04:25:18.630Z,99.99
2019-02-25T04:26:18.595Z,99.99
2019-02-25T04:27:18.567Z,99.99
2019-02-25T04:28:18.548Z,99.99
2019-02-25T04:29:18.586Z,99.99
2019-02-25T04:30:18.489Z,99.99
2019-02-25T04:31:18.470Z,99.99
2019-02-25T04:32:18.438Z,99.99
2019-02-25T04:33:18.429Z,99.99
2019-02-25T04:34:18.398Z,99.99
2019-02-25T04:35:18.378Z,99.99
2019-02-25T04:36:18.333Z,99.99
2019-02-25T04:37:18.333Z,99.99
2019-02-25T04:38:18.287Z,99.99
2019-02-25T04:39:18.262Z,99.99
2019-02-25T04:40:18.233Z,99.99
2019-02-25T04:41:18.211Z,99.99
2019-02-25T04:42:18.195Z,99.99
2019-02-25T04:43:18.160Z,99.99
2019-02-25T04:44:18.132Z,99.99
2019-02-25T04:45:18.103Z,99.99
2019-02-25T04:46:18.081Z,99.99
2019-02-25T04:47:18.061Z,99.99
2019-02-25T04:48:18.031Z,99.99
2019-02-25T04:49:17.999Z,99.99
2019-02-25T04:50:17.976Z,99.99
2019-02-25T04:51:17.948Z,99.99
2019-02-25T04:52:17.926Z,99.99
2019-02-25T04:53:17.894Z,99.99
2019-02-25T04:54:17.877Z,99.99
2019-02-25T04:55:17.842Z,99.99
2019-02-25T04:56:17.820Z,99.99
2019-02-25T04:57:17.811Z,99.99
2019-02-25T04:58:17.774Z,99.99
2019-02-25T04:59:17.742Z,99.99
2019-02-25T05:00:17.714Z,99.99
2019-02-25T05:01:17.688Z,99.99
2019-02-25T05:02:17.668Z,99.99
2019-02-25T05:03:17.641Z,99.99
2019-02-25T05:04:17.649Z,99.99
2019-02-25T05:05:17.594Z,99.99
2019-02-25T05:06:17.560Z,99.99
2019-02-25T05:07:17.531Z,99.99
2019-02-25T05:08:17.513Z,99.99
2019-02-25T05:09:17.486Z,99.99
2019-02-25T05:10:17.457Z,99.99
2019-02-25T05:11:17.431Z,99.99
2019-02-25T05:12:17.403Z,99.99
2019-02-25T05:13:17.378Z,99.99
2019-02-25T05:14:17.349Z,99.99
2019-02-25T05:15:17.328Z,99.99
2019-02-25T05:16:17.314Z,99.99
2019-02-25T05:17:17.281Z,99.99
2019-02-25T05:18:17.246Z,99.99
2019-02-25T05:19:17.227Z,99.99
2019-02-25T05:20:17.202Z,99.99
2019-02-25T05:21:17.167Z,99.99
2019-02-25T05:22:17.143Z,99.99
2019-02-25T05:23:17.133Z,99.99
2019-02-25T05:24:17.091Z,99.99
2019-02-25T05:25:17.085Z,99.99
2019-02-25T05:26:17.072Z,99.99
2019-02-25T05:27:17.019Z,99.99
2019-02-25T05:28:16.990Z,99.99
2019-02-25T05:29:16.964Z,99.99
2019-02-25T05:30:16.932Z,99.99
2019-02-25T05:31:16.915Z,99.99
2019-02-25T05:32:16.886Z,99.99
2019-02-25T05:33:16.896Z,99.99
2019-02-25T05:34:16.858Z,99.99
2019-02-25T05:35:16.808Z,99.99
2019-02-25T05:36:16.784Z,99.99
2019-02-25T05:37:16.767Z,99.99
2019-02-25T05:38:16.720Z,99.99
2019-02-25T05:39:16.705Z,99.99
2019-02-25T05:40:16.684Z,99.99
2019-02-25T05:41:16.652Z,99.99
2019-02-25T05:42:16.626Z,99.99
2019-02-25T05:43:16.619Z,99.99
2019-02-25T05:44:16.572Z,99.99
2019-02-25T05:45:16.557Z,99.99
2019-02-25T05:46:16.520Z,99.99
2019-02-25T05:47:16.498Z,99.99
2019-02-25T05:48:16.467Z,99.99
2019-02-25T05:49:16.450Z,99.99
2019-02-25T05:50:16.421Z,99.99
2019-02-25T05:51:16.399Z,99.99
2019-02-25T05:52:16.360Z,99.99
2019-02-25T05:53:16.337Z,99.99
2019-02-25T05:54:16.311Z,99.99
2019-02-25T05:55:16.285Z,99.99
2019-02-25T05:56:16.260Z,99.99
2019-02-25T05:57:16.234Z,99.99
2019-02-25T05:58:16.212Z,99.99
2019-02-25T05:59:16.180Z,99.99
2019-02-25T06:00:16.161Z,99.99
2019-02-25T06:01:16.131Z,99.99
2019-02-25T06:02:16.103Z,99.99
2019-02-25T06:03:16.077Z,99.99
2019-02-25T06:04:16.061Z,99.99
2019-02-25T06:05:16.031Z,99.99
2019-02-25T06:06:16.000Z,99.99
2019-02-25T06:07:15.978Z,99.99
2019-02-25T06:08:15.953Z,99.99
2019-02-25T06:09:15.955Z,99.99
2019-02-25T06:10:15.895Z,99.99
2019-02-25T06:11:15.873Z,99.99
2019-02-25T06:12:15.847Z,99.99
2019-02-25T06:13:15.815Z,99.99
2019-02-25T06:14:15.802Z,99.99
2019-02-25T06:15:15.761Z,99.99
2019-02-25T06:16:15.743Z,99.99
2019-02-25T06:17:15.727Z,99.99
2019-02-25T06:18:15.695Z,99.99
2019-02-25T06:19:15.666Z,99.99
2019-02-25T06:20:15.642Z,99.99
2019-02-25T06:21:15.615Z,99.99
2019-02-25T06:22:15.588Z,99.99
2019-02-25T06:23:15.562Z,99.99
2019-02-25T06:24:15.543Z,99.99
2019-02-25T06:25:15.607Z,99.99
2019-02-25T06:26:15.483Z,99.99
2019-02-25T06:27:15.456Z,99.99
2019-02-25T06:28:15.430Z,99.99
2019-02-25T06:29:15.403Z,99.99
2019-02-25T06:30:15.380Z,99.99
2019-02-25T06:31:15.345Z,99.99
2019-02-25T06:32:15.323Z,99.99
2019-02-25T06:33:15.300Z,99.99
2019-02-25T06:34:15.268Z,99.99
2019-02-25T06:35:15.249Z,99.99
2019-02-25T06:36:15.223Z,99.99
2019-02-25T06:37:15.189Z,99.99
2019-02-25T06:38:15.171Z,99.99
2019-02-25T06:39:15.147Z,99.99
2019-02-25T06:40:15.798Z,99.99
2019-02-25T06:41:15.093Z,99.99
2019-02-25T06:42:15.065Z,99.99
2019-02-25T06:43:15.049Z,99.99
2019-02-25T06:44:15.014Z,99.99
2019-02-25T06:45:15.001Z,99.99
2019-02-25T06:46:14.956Z,99.99
2019-02-25T06:47:14.937Z,99.99
2019-02-25T06:48:14.905Z,99.99
2019-02-25T06:49:14.885Z,99.99
2019-02-25T06:50:14.862Z,99.99
2019-02-25T06:51:14.833Z,99.99
2019-02-25T06:52:14.801Z,99.99
2019-02-25T06:53:14.782Z,99.99
2019-02-25T06:54:14.766Z,99.99
2019-02-25T06:55:14.725Z,99.99
2019-02-25T06:56:14.706Z,99.99
2019-02-25T06:57:14.672Z,99.99
2019-02-25T06:58:14.653Z,99.99
2019-02-25T06:59:14.618Z,99.99
2019-02-25T07:00:14.593Z,99.99
2019-02-25T07:01:14.567Z,99.99
2019-02-25T07:02:14.547Z,99.99
2019-02-25T07:03:14.528Z,99.99
2019-02-25T07:04:14.500Z,99.99
2019-02-25T07:05:14.465Z,99.99
2019-02-25T07:06:14.445Z,99.99
2019-02-25T07:07:14.417Z,99.99
2019-02-25T07:08:14.395Z,99.99
2019-02-25T07:09:14.369Z,99.99
2019-02-25T07:10:14.342Z,99.99
2019-02-25T07:11:14.314Z,99.99
2019-02-25T07:12:14.288Z,99.99
2019-02-25T07:13:14.266Z,99.99
2019-02-25T07:14:14.240Z,99.71
2019-02-25T07:15:14.215Z,98.48
2019-02-25T07:16:14.192Z,97.06
2019-02-25T07:17:14.169Z,96.97
2019-02-25T07:18:14.147Z,96.54
2019-02-25T07:19:14.106Z,96.16
2019-02-25T07:20:14.085Z,95.40
2019-02-25T07:21:14.053Z,95.59
2019-02-25T07:22:14.034Z,96.50
2019-02-25T07:23:14.007Z,97.06
2019-02-25T07:24:13.983Z,97.25
2019-02-25T07:25:13.951Z,97.82
2019-02-25T07:26:13.934Z,97.63
2019-02-25T07:27:13.909Z,97.34
2019-02-25T07:28:13.883Z,97.91
2019-02-25T07:29:13.854Z,97.72
2019-02-25T07:30:13.837Z,97.82
2019-02-25T07:31:13.809Z,98.10
2019-02-25T07:32:13.777Z,98.01
2019-02-25T07:33:13.761Z,98.58
2019-02-25T07:34:13.741Z,98.67
2019-02-25T07:35:13.701Z,98.39
2019-02-25T07:36:13.687Z,98.58
2019-02-25T07:37:13.653Z,99.01
2019-02-25T07:38:13.631Z,98.53
2019-02-25T07:39:13.614Z,96.83
2019-02-25T07:40:13.590Z,97.02
2019-02-25T07:41:13.563Z,96.64
2019-02-25T07:42:13.537Z,95.97
2019-02-25T07:43:15.405Z,95.88
2019-02-25T07:44:13.479Z,95.26
2019-02-25T07:45:13.457Z,94.23
2019-02-25T07:46:13.428Z,92.99
2019-02-25T07:47:13.406Z,92.38
2019-02-25T07:48:13.380Z,91.52
2019-02-25T07:49:13.369Z,91.14
2019-02-25T07:50:13.330Z,91.76
2019-02-25T07:51:13.301Z,91.28
2019-02-25T07:52:13.288Z,90.57
2019-02-25T07:53:13.253Z,89.81
2019-02-25T07:54:13.247Z,88.91
2019-02-25T07:55:13.248Z,86.35
2019-02-25T07:56:13.187Z,84.92
2019-02-25T07:57:13.167Z,82.97
2019-02-25T07:58:13.143Z,81.68
2019-02-25T07:59:13.113Z,81.30
2019-02-25T08:00:13.088Z,81.82
2019-02-25T08:01:13.065Z,80.68
2019-02-25T08:02:13.037Z,79.01
2019-02-25T08:03:13.014Z,77.01
2019-02-25T08:04:12.995Z,74.44
2019-02-25T08:05:12.973Z,73.97
2019-02-25T08:06:12.954Z,71.72
2019-02-25T08:07:12.917Z,73.72
2019-02-25T08:08:12.911Z,73.10
2019-02-25T08:09:12.885Z,70.84
2019-02-25T08:10:12.876Z,70.47
2019-02-25T08:11:12.847Z,68.65
2019-02-25T08:12:12.805Z,67.74
2019-02-25T08:13:12.789Z,65.92
2019-02-25T08:14:12.754Z,65.23
2019-02-25T08:15:12.746Z,65.70
2019-02-25T08:16:12.717Z,65.23
2019-02-25T08:17:12.688Z,65.89
2019-02-25T08:18:12.665Z,67.03
2019-02-25T08:19:12.643Z,67.22
2019-02-25T08:20:12.629Z,66.75
2019-02-25T08:21:12.614Z,66.27
2019-02-25T08:22:12.580Z,65.86
2019-02-25T08:23:12.682Z,67.38
2019-02-25T08:24:12.533Z,68.43
2019-02-25T08:25:12.527Z,68.43
2019-02-25T08:26:12.495Z,69.00
2019-02-25T08:27:12.472Z,69.95
2019-02-25T08:28:12.485Z,70.75
2019-02-25T08:29:12.434Z,69.13
2019-02-25T08:30:12.408Z,68.30
2019-02-25T08:31:12.380Z,67.51
2019-02-25T08:32:12.364Z,68.24
2019-02-25T08:33:12.346Z,69.82
2019-02-25T08:34:18.338Z,70.39
2019-02-25T08:35:47.962Z,70.72
2019-02-25T08:36:12.276Z,71.72
2019-02-25T08:37:12.257Z,72.96
2019-02-25T08:38:12.231Z,73.72
2019-02-25T08:39:12.222Z,74.20
2019-02-25T08:40:12.200Z,74.10
2019-02-25T08:41:12.167Z,73.91
2019-02-25T08:42:12.151Z,75.15
2019-02-25T08:43:12.135Z,73.47
2019-02-25T08:44:12.113Z,72.08
2019-02-25T08:45:12.106Z,70.78
2019-02-25T08:46:12.065Z,70.31
2019-02-25T08:47:12.042Z,70.78
2019-02-25T08:48:12.020Z,69.74
2019-02-25T08:49:12.023Z,68.78
2019-02-25T08:50:11.980Z,69.32
2019-02-25T08:51:11.949Z,70.47
2019-02-25T08:52:11.940Z,70.27
2019-02-25T08:53:11.915Z,70.18
2019-02-25T08:54:11.917Z,71.13
2019-02-25T08:55:11.872Z,71.22
2019-02-25T08:56:11.853Z,70.56
2019-02-25T08:57:11.831Z,70.59
2019-02-25T08:58:11.817Z,70.56
2019-02-25T08:59:11.803Z,71.07
2019-02-25T09:00:11.779Z,69.93
2019-02-25T09:01:11.752Z,70.50
2019-02-25T09:02:11.725Z,70.59
2019-02-25T09:03:11.729Z,70.69
2019-02-25T09:04:11.680Z,69.29
2019-02-25T09:05:11.664Z,68.66
2019-02-25T09:06:11.655Z,67.33
2019-02-25T09:07:11.622Z,67.90
2019-02-25T09:08:11.619Z,67.07
2019-02-25T09:09:11.587Z,67.23
2019-02-25T09:10:13.453Z,67.04
2019-02-25T09:11:14.100Z,67.33
2019-02-25T09:12:11.521Z,66.47
2019-02-25T09:13:11.499Z,67.07
2019-02-25T09:14:11.506Z,66.92
2019-02-25T09:15:11.451Z,64.25
2019-02-25T09:16:11.433Z,63.83
2019-02-25T09:17:11.422Z,64.75
2019-02-25T09:18:11.398Z,66.09
2019-02-25T09:19:11.385Z,67.39
2019-02-25T09:20:11.359Z,67.48
2019-02-25T09:21:11.347Z,67.23
2019-02-25T09:22:11.327Z,66.85
2019-02-25T09:23:11.295Z,66.56
2019-02-25T09:24:11.288Z,65.89
2019-02-25T09:25:11.263Z,65.36
2019-02-25T09:26:11.961Z,65.89
2019-02-25T09:27:11.218Z,64.56
2019-02-25T09:28:11.218Z,65.45
2019-02-25T09:29:11.187Z,64.75
2019-02-25T09:30:11.168Z,64.69
2019-02-25T09:31:11.142Z,64.34
2019-02-25T09:32:11.119Z,64.25
2019-02-25T09:33:11.113Z,63.00
2019-02-25T09:34:11.817Z,63.13
2019-02-25T09:35:11.055Z,64.18
2019-02-25T09:36:11.062Z,60.74
2019-02-25T09:37:11.023Z,59.98
2019-02-25T09:38:11.007Z,59.69
2019-02-25T09:39:11.007Z,60.01
2019-02-25T09:40:10.975Z,58.86
2019-02-25T09:41:10.956Z,57.71
2019-02-25T09:42:10.925Z,56.88
2019-02-25T09:43:10.905Z,56.15
2019-02-25T09:44:10.890Z,54.83
2019-02-25T09:45:10.875Z,54.74
2019-02-25T09:46:10.854Z,54.83
2019-02-25T09:47:10.835Z,55.19
2019-02-25T09:48:10.814Z,56.31
2019-02-25T09:49:10.793Z,57.62
2019-02-25T09:50:10.771Z,58.95
2019-02-25T09:51:11.342Z,59.41
2019-02-25T09:52:10.736Z,59.15
2019-02-25T09:53:10.725Z,58.45
2019-02-25T09:54:10.708Z,58.48
2019-02-25T09:55:10.676Z,58.67
2019-02-25T09:56:10.670Z,59.53
2019-02-25T09:57:10.647Z,58.10
2019-02-25T09:58:10.621Z,56.69
2019-02-25T09:59:10.605Z,56.72
2019-02-25T10:00:10.593Z,56.05
2019-02-25T10:01:10.580Z,55.19
2019-02-25T10:02:10.573Z,55.60
2019-02-25T10:03:10.537Z,52.15
2019-02-25T10:04:10.520Z,51.42
2019-02-25T10:05:10.505Z,51.73
2019-02-25T10:06:11.323Z,52.42
2019-02-25T10:07:10.473Z,50.63
2019-02-25T10:08:10.463Z,49.76
2019-02-25T10:09:10.438Z,48.54
2019-02-25T10:10:10.418Z,48.35
2019-02-25T10:11:10.418Z,48.43
2019-02-25T10:12:10.393Z,50.00
2019-02-25T10:13:10.396Z,51.54
2019-02-25T10:14:10.406Z,51.73
2019-02-25T10:15:10.340Z,52.97
2019-02-25T10:16:10.336Z,50.22
2019-02-25T10:17:10.324Z,49.19
2019-02-25T10:18:10.295Z,48.52
2019-02-25T10:19:10.285Z,47.39
2019-02-25T10:20:10.260Z,46.50
2019-02-25T10:21:10.248Z,47.34
2019-02-25T10:22:10.234Z,47.03
2019-02-25T10:23:10.215Z,47.92
2019-02-25T10:24:10.204Z,46.67
2019-02-25T10:25:10.196Z,46.65
2019-02-25T10:26:10.170Z,47.80
2019-02-25T10:27:10.159Z,46.84
2019-02-25T10:28:10.144Z,47.01
2019-02-25T10:29:10.125Z,48.09
2019-02-25T10:30:10.112Z,48.85
2019-02-25T10:31:11.487Z,47.63
2019-02-25T10:32:10.096Z,46.10
2019-02-25T10:33:10.067Z,46.10
2019-02-25T10:34:10.078Z,45.14
2019-02-25T10:35:10.038Z,45.16
2019-02-25T10:36:10.032Z,45.07
2019-02-25T10:37:11.042Z,44.30
2019-02-25T10:38:10.000Z,44.42
2019-02-25T10:39:11.252Z,44.90
2019-02-25T10:40:09.987Z,43.74
2019-02-25T10:41:09.960Z,44.61
2019-02-25T10:42:09.950Z,43.36
2019-02-25T10:43:09.928Z,43.84
2019-02-25T10:44:09.917Z,42.02
2019-02-25T10:45:11.049Z,42.11
2019-02-25T10:46:12.951Z,42.23
2019-02-25T10:47:11.023Z,42.43
2019-02-25T10:48:09.878Z,42.43
2019-02-25T10:49:11.605Z,41.94
2019-02-25T10:50:09.839Z,42.25
2019-02-25T10:51:11.393Z,42.37
2019-02-25T10:52:10.737Z,40.14
2019-02-25T10:53:10.984Z,39.35
2019-02-25T10:54:09.803Z,40.14
2019-02-25T10:55:09.794Z,39.08
2019-02-25T10:56:09.765Z,38.81
2019-02-25T10:57:09.755Z,39.03
2019-02-25T10:58:09.745Z,39.12
2019-02-25T10:59:09.736Z,39.29
2019-02-25T11:00:11.605Z,40.47
2019-02-25T11:01:13.367Z,39.81
2019-02-25T11:02:11.592Z,39.04
2019-02-25T11:03:10.730Z,38.95
2019-02-25T11:04:09.706Z,39.14
2019-02-25T11:05:09.669Z,39.16
2019-02-25T11:06:09.690Z,36.18
2019-02-25T11:07:09.750Z,35.41
2019-02-25T11:08:11.528Z,37.43
2019-02-25T11:09:10.969Z,35.30
2019-02-25T11:10:09.615Z,35.49
2019-02-25T11:11:09.618Z,36.53
2019-02-25T11:12:09.592Z,36.43
2019-02-25T11:13:09.611Z,37.66
2019-02-25T11:14:09.579Z,36.90
2019-02-25T11:15:11.469Z,37.66
2019-02-25T11:16:10.178Z,35.76
2019-02-25T11:17:09.547Z,35.76
2019-02-25T11:18:09.531Z,34.80
2019-02-25T11:19:09.528Z,36.03
2019-02-25T11:20:09.537Z,36.60
2019-02-25T11:21:10.652Z,36.68
2019-02-25T11:22:10.495Z,36.11
2019-02-25T11:23:10.133Z,37.66
2019-02-25T11:24:09.483Z,37.30
2019-02-25T11:25:09.496Z,36.43
2019-02-25T11:26:09.476Z,35.20
2019-02-25T11:27:09.480Z,33.28
2019-02-25T11:28:22.636Z,34.35
2019-02-25T11:29:11.354Z,31.74
2019-02-25T11:30:09.778Z,31.85
2019-02-25T11:31:09.441Z,32.62
2019-02-25T11:32:09.429Z,32.03
2019-02-25T11:33:09.419Z,31.74
2019-02-25T11:34:09.401Z,30.87
2019-02-25T11:35:10.845Z,30.28
2019-02-25T11:36:10.632Z,31.03
2019-02-25T11:37:09.374Z,31.03
2019-02-25T11:38:09.369Z,31.80
2019-02-25T11:39:09.612Z,32.59
2019-02-25T11:40:09.356Z,31.82
2019-02-25T11:41:11.192Z,30.66
2019-02-25T11:42:10.814Z,29.99
2019-02-25T11:43:10.565Z,30.47
2019-02-25T11:44:09.320Z,30.55
2019-02-25T11:45:09.316Z,30.93
2019-02-25T11:46:09.326Z,30.65
2019-02-25T11:47:09.311Z,30.54
2019-02-25T11:48:09.326Z,31.69
2019-02-25T11:49:09.290Z,31.88
2019-02-25T11:50:09.281Z,31.51
2019-02-25T11:51:09.271Z,30.47
2019-02-25T11:52:09.271Z,31.90
2019-02-25T11:53:09.284Z,33.62
2019-02-25T11:54:09.252Z,33.53
2019-02-25T11:55:09.246Z,34.01
2019-02-25T11:56:09.265Z,32.76
2019-02-25T11:57:09.230Z,32.87
2019-02-25T11:58:09.227Z,33.74
2019-02-25T11:59:09.225Z,33.75
2019-02-25T12:00:09.221Z,33.87
2019-02-25T12:01:09.217Z,34.35
2019-02-25T12:02:09.198Z,34.16
2019-02-25T12:03:09.188Z,33.54
2019-02-25T12:04:09.195Z,34.23
2019-02-25T12:05:09.179Z,35.20
2019-02-25T12:06:09.175Z,35.60
2019-02-25T12:07:09.198Z,34.45
2019-02-25T12:08:09.172Z,32.79
2019-02-25T12:09:09.164Z,32.98
2019-02-25T12:10:09.148Z,35.12
2019-02-25T12:11:09.136Z,34.45
2019-02-25T12:12:09.132Z,34.46
2019-02-25T12:13:09.117Z,33.12
2019-02-25T12:14:09.116Z,34.46
2019-02-25T12:15:09.119Z,30.98
2019-02-25T12:16:09.105Z,30.68
2019-02-25T12:17:09.103Z,31.92
2019-02-25T12:18:09.097Z,33.45
2019-02-25T12:19:17.611Z,34.31
2019-02-25T12:20:09.074Z,34.33
2019-02-25T12:21:09.070Z,33.56
2019-02-25T12:22:09.094Z,34.53
2019-02-25T12:23:09.061Z,33.08
2019-02-25T12:24:09.065Z,32.39
2019-02-25T12:25:09.057Z,32.41
2019-02-25T12:26:09.042Z,32.87
2019-02-25T12:27:09.043Z,32.68
2019-02-25T12:28:09.058Z,34.12
2019-02-25T12:29:11.080Z,34.53
2019-02-25T12:30:09.029Z,35.39
2019-02-25T12:31:09.024Z,34.53
2019-02-25T12:32:09.014Z,32.87
2019-02-25T12:33:08.998Z,32.59
2019-02-25T12:34:09.014Z,32.68
2019-02-25T12:35:09.016Z,33.74
2019-02-25T12:36:08.990Z,33.07
2019-02-25T12:37:08.994Z,33.05
2019-02-25T12:38:08.992Z,33.05
2019-02-25T12:39:08.966Z,33.05
2019-02-25T12:40:08.972Z,33.72
2019-02-25T12:41:08.969Z,33.15
2019-02-25T12:42:08.950Z,33.62
2019-02-25T12:43:08.938Z,33.23
2019-02-25T12:44:08.936Z,33.61
2019-02-25T12:45:08.931Z,33.70
2019-02-25T12:46:08.915Z,33.80
2019-02-25T12:47:08.915Z,34.09
2019-02-25T12:48:08.912Z,34.59
2019-02-25T12:49:08.893Z,34.28
2019-02-25T12:50:08.893Z,36.32
2019-02-25T12:51:08.886Z,34.59
2019-02-25T12:52:08.877Z,34.20